Time;durP1;ratioP1;P1;durP2;ratioP2;P2;SDS_P1;SDS_P2;PMS_P1;PMS_P2;Temp;Humidity;BMP_temperature;BMP_pressure;BME280_temperature;BME280_humidity;BME280_pressure;Samples;Min_cycle;Max_cycle;Signal;HPM_P1;HPM_P2
2024/04/23 00:02:01;;;;;;;0.90;0.70;;;23.20;59.50;;;;;;5434848;26;21213;-30
2024/04/23 00:04:27;;;;;;;1.10;0.80;;;23.30;59.50;;;;;;5433011;26;21104;-35
2024/04/23 00:06:56;;;;;;;1.03;0.70;;;23.20;59.40;;;;;;5427344;26;20531;-34
2024/04/23 00:09:22;;;;;;;1.00;0.70;;;23.20;59.40;;;;;;5424680;26;20478;-31
2024/04/23 00:11:58;;;;;;;2.00;0.70;;;23.50;59.90;;;;;;5425135;26;20554;-33
2024/04/23 00:14:23;;;;;;;1.03;0.80;;;23.40;59.80;;;;;;5426156;26;20819;-32
2024/04/23 00:17:06;;;;;;;1.10;0.80;;;23.40;59.90;;;;;;5436251;26;20467;-34
2024/04/23 00:19:34;;;;;;;1.00;0.70;;;22.90;60.30;;;;;;5425070;26;20239;-34
2024/04/23 00:22:04;;;;;;;1.00;0.70;;;23.30;59.90;;;;;;5435207;26;20538;-33
2024/04/23 00:24:34;;;;;;;0.90;0.80;;;23.00;59.70;;;;;;5434805;26;21715;-32
2024/04/23 00:27:07;;;;;;;1.00;0.70;;;23.30;59.90;;;;;;5430864;26;21030;-36
2024/04/23 00:29:32;;;;;;;1.70;0.90;;;23.20;59.90;;;;;;5419449;26;20515;-33
2024/04/23 00:32:08;;;;;;;3.30;0.90;;;23.00;59.80;;;;;;5417793;26;20511;-32
2024/04/23 00:34:33;;;;;;;1.00;0.80;;;22.80;59.60;;;;;;5432747;26;20547;-34
2024/04/23 00:37:02;;;;;;;1.87;0.80;;;23.20;60.30;;;;;;5428072;26;22131;-32
2024/04/23 00:39:29;;;;;;;1.00;0.90;;;23.80;60.90;;;;;;5441187;26;20230;-32
2024/04/23 00:42:00;;;;;;;1.20;0.87;;;22.80;59.90;;;;;;5431572;26;20518;-33
2024/04/23 00:44:26;;;;;;;1.10;0.70;;;23.10;60.10;;;;;;5441855;26;20459;-34
2024/04/23 00:46:55;;;;;;;1.30;0.90;;;23.10;60.30;;;;;;5427807;26;20643;-32
2024/04/23 00:49:24;;;;;;;1.00;0.80;;;23.00;60.20;;;;;;5433007;26;20289;-32
2024/04/23 00:51:55;;;;;;;1.10;0.90;;;23.10;60.30;;;;;;5433356;26;21222;-32
2024/04/23 00:54:26;;;;;;;1.77;0.70;;;23.80;61.40;;;;;;5420965;26;20457;-34
2024/04/23 00:56:57;;;;;;;1.40;0.90;;;23.90;61.40;;;;;;5445907;26;20601;-31
2024/04/23 01:02:22;;;;;;;1.75;0.70;;;22.80;60.40;;;;;;5415889;26;20470;-31
2024/04/23 01:04:52;;;;;;;1.10;0.90;;;22.90;60.30;;;;;;5421260;26;21032;-35
2024/04/23 01:07:25;;;;;;;1.17;0.80;;;22.90;60.70;;;;;;5428354;26;21349;-33
2024/04/23 01:09:58;;;;;;;1.10;1.00;;;22.90;60.70;;;;;;5419346;26;20242;-32
2024/04/23 01:12:31;;;;;;;0.90;0.80;;;22.90;60.80;;;;;;5432614;26;20522;-34
2024/04/23 01:14:59;;;;;;;1.03;0.80;;;22.80;60.50;;;;;;5399161;26;20472;-32
2024/04/23 01:17:27;;;;;;;1.00;0.70;;;22.90;60.90;;;;;;5422213;26;20577;-36
2024/04/23 01:20:10;;;;;;;1.10;0.80;;;22.80;60.70;;;;;;5426732;26;20483;-35
2024/04/23 01:22:48;;;;;;;1.03;0.90;;;23.30;61.40;;;;;;5438689;26;20479;-34
2024/04/23 01:25:15;;;;;;;1.00;0.70;;;22.80;60.80;;;;;;5432615;26;20580;-36
2024/04/23 01:27:59;;;;;;;1.00;0.80;;;22.40;60.60;;;;;;5438788;26;20520;-36
2024/04/23 01:30:28;;;;;;;1.10;1.00;;;22.70;60.90;;;;;;5422232;26;21561;-34
2024/04/23 01:33:06;;;;;;;1.03;0.80;;;23.30;61.70;;;;;;5429731;26;20466;-32
2024/04/23 01:35:34;;;;;;;0.90;0.70;;;22.70;61.80;;;;;;5436222;26;21034;-35
2024/04/23 01:38:05;;;;;;;1.00;0.70;;;22.30;61.00;;;;;;5437871;26;20466;-31
2024/04/23 01:40:34;;;;;;;1.00;0.70;;;22.70;61.20;;;;;;5436909;26;20580;-36
2024/04/23 01:43:10;;;;;;;1.00;0.77;;;23.20;61.90;;;;;;5430116;26;20999;-33
2024/04/23 01:45:41;;;;;;;0.90;0.80;;;22.60;61.10;;;;;;5433082;26;20465;-34
2024/04/23 01:48:15;;;;;;;1.00;0.80;;;22.40;61.20;;;;;;5434555;26;20463;-33
2024/04/23 01:50:45;;;;;;;1.10;0.73;;;22.20;60.80;;;;;;5424941;26;20541;-33
2024/04/23 01:53:19;;;;;;;1.10;0.70;;;22.40;61.10;;;;;;5439410;26;20226;-31
2024/04/23 01:55:49;;;;;;;0.87;0.60;;;22.90;61.60;;;;;;5437438;26;20925;-31
2024/04/23 01:58:22;;;;;;;1.30;0.90;;;22.60;61.20;;;;;;5437897;26;20518;-33
2024/04/23 02:00:56;;;;;;;1.15;0.90;;;22.10;60.80;;;;;;5427399;26;20610;-33
2024/04/23 02:03:28;;;;;;;1.10;0.80;;;22.60;61.40;;;;;;5435655;26;20230;-34
2024/04/23 02:06:01;;;;;;;1.63;0.80;;;22.50;61.60;;;;;;5431054;26;20597;-31
2024/04/23 02:08:29;;;;;;;0.90;0.70;;;22.10;61.20;;;;;;5416713;26;22771;-34
2024/04/23 02:10:55;;;;;;;0.90;0.70;;;22.20;61.40;;;;;;5430290;26;20610;-32
2024/04/23 02:13:28;;;;;;;2.20;0.90;;;22.80;62.20;;;;;;5426343;26;22676;-31
2024/04/23 02:15:55;;;;;;;1.30;0.80;;;23.00;62.40;;;;;;5437098;26;20739;-31
2024/04/23 02:18:32;;;;;;;1.10;0.95;;;22.40;61.80;;;;;;5423656;26;21046;-32
2024/04/23 02:20:58;;;;;;;0.95;0.70;;;22.40;61.50;;;;;;5437356;26;20281;-35
2024/04/23 02:23:35;;;;;;;1.20;0.90;;;22.00;61.20;;;;;;5426178;26;20298;-34
2024/04/23 02:26:10;;;;;;;1.30;1.13;;;22.10;61.50;;;;;;5426472;26;20246;-36
2024/04/23 02:28:44;;;;;;;1.00;0.73;;;22.70;61.90;;;;;;5419738;26;20229;-35
2024/04/23 02:31:12;;;;;;;1.00;0.90;;;22.30;61.70;;;;;;5409003;26;20528;-34
2024/04/23 02:33:44;;;;;;;0.90;0.70;;;22.30;61.70;;;;;;5422162;26;20978;-34
2024/04/23 02:36:09;;;;;;;1.20;0.80;;;22.50;62.00;;;;;;5439654;26;21437;-31
2024/04/23 02:38:40;;;;;;;1.00;0.77;;;22.30;62.00;;;;;;5432946;26;20226;-32
2024/04/23 02:41:09;;;;;;;1.10;0.80;;;21.90;61.40;;;;;;5433424;26;20254;-30
2024/04/23 02:43:37;;;;;;;1.02;0.70;;;22.90;62.70;;;;;;5434981;26;20285;-35
2024/04/23 02:46:08;;;;;;;1.10;0.77;;;21.80;61.50;;;;;;5437651;26;20231;-34
2024/04/23 02:48:39;;;;;;;1.00;0.80;;;22.30;63.20;;;;;;5430387;26;24333;-30
2024/04/23 02:51:10;;;;;;;0.98;0.82;;;21.80;61.60;;;;;;5436708;26;20230;-32
2024/04/23 02:53:38;;;;;;;1.42;0.77;;;22.30;62.10;;;;;;5428725;26;20609;-30
2024/04/23 02:56:05;;;;;;;1.00;0.85;;;22.00;61.70;;;;;;5419927;26;20246;-32
2024/04/23 02:58:39;;;;;;;1.20;0.70;;;22.20;61.90;;;;;;5423656;26;20238;-35
2024/04/23 03:01:07;;;;;;;1.20;0.90;;;22.50;62.50;;;;;;5421634;26;20336;-33
2024/04/23 03:03:40;;;;;;;1.20;0.70;;;22.20;62.00;;;;;;5429744;26;20889;-35
2024/04/23 03:06:06;;;;;;;0.98;0.70;;;21.80;61.40;;;;;;5432800;26;20222;-34
2024/04/23 03:08:35;;;;;;;1.00;0.87;;;22.20;62.20;;;;;;5436423;26;21094;-31
2024/04/23 03:11:00;;;;;;;1.48;0.80;;;22.20;62.20;;;;;;5445844;26;20471;-31
2024/04/23 03:13:31;;;;;;;1.10;0.70;;;22.10;62.10;;;;;;5443672;26;22357;-34
2024/04/23 03:15:56;;;;;;;1.00;0.70;;;22.10;62.20;;;;;;5434019;26;20774;-35
2024/04/23 03:18:27;;;;;;;1.10;0.80;;;22.70;62.90;;;;;;5431821;26;20242;-34
2024/04/23 03:20:55;;;;;;;1.20;0.90;;;21.70;61.70;;;;;;5432961;26;20246;-36
2024/04/23 03:23:28;;;;;;;1.27;1.17;;;21.90;62.10;;;;;;5443567;26;20226;-35
2024/04/23 03:25:56;;;;;;;1.83;0.90;;;22.10;62.20;;;;;;5437421;26;20734;-32
2024/04/23 03:28:26;;;;;;;1.20;0.95;;;21.50;61.70;;;;;;5421439;26;20389;-32
2024/04/23 03:30:52;;;;;;;1.10;0.70;;;22.10;62.20;;;;;;5434183;26;20244;-33
2024/04/23 03:33:22;;;;;;;1.10;0.90;;;22.10;62.50;;;;;;5441167;26;20346;-31
2024/04/23 03:35:52;;;;;;;1.27;0.90;;;21.60;61.60;;;;;;5431787;26;20238;-31
2024/04/23 03:38:21;;;;;;;1.10;0.90;;;22.00;62.30;;;;;;5418500;26;20387;-31
2024/04/23 03:40:53;;;;;;;1.15;1.00;;;22.70;63.30;;;;;;5441015;26;20243;-35
2024/04/23 03:43:22;;;;;;;1.00;0.80;;;22.00;62.30;;;;;;5425377;26;21266;-33
2024/04/23 03:45:53;;;;;;;1.00;0.77;;;22.00;62.50;;;;;;5438153;26;20239;-31
2024/04/23 03:48:21;;;;;;;1.00;0.70;;;21.60;61.80;;;;;;5423619;26;20342;-30
2024/04/23 03:50:52;;;;;;;1.10;0.80;;;22.00;62.60;;;;;;5436769;26;20281;-35
2024/04/23 03:53:21;;;;;;;1.20;1.00;;;22.60;63.20;;;;;;5418327;26;20272;-30
2024/04/23 03:55:46;;;;;;;1.10;0.90;;;22.00;62.50;;;;;;5433253;26;20334;-33
2024/04/23 03:58:18;;;;;;;1.00;0.80;;;22.70;63.40;;;;;;5437425;26;20255;-33
2024/04/23 04:00:43;;;;;;;1.20;0.80;;;21.60;61.80;;;;;;5440985;26;20338;-33
2024/04/23 04:06:07;;;;;;;1.00;0.80;;;21.90;63.10;;;;;;5439965;26;20794;-34
2024/04/23 04:08:39;;;;;;;1.10;0.90;;;21.60;62.00;;;;;;5427096;26;20364;-31
2024/04/23 04:11:07;;;;;;;1.00;0.80;;;22.00;62.70;;;;;;5433904;26;20848;-31
2024/04/23 04:13:33;;;;;;;1.45;0.88;;;22.60;63.20;;;;;;5432799;26;21781;-35
2024/04/23 04:16:07;;;;;;;1.03;0.87;;;22.00;62.50;;;;;;5435958;26;20234;-32
2024/04/23 04:18:36;;;;;;;1.20;0.90;;;22.00;62.50;;;;;;5423946;26;21177;-32
2024/04/23 04:21:07;;;;;;;1.10;1.00;;;22.30;62.80;;;;;;5433077;26;20320;-33
2024/04/23 04:23:33;;;;;;;1.00;0.70;;;21.90;62.60;;;;;;5407408;26;20272;-32
2024/04/23 04:26:03;;;;;;;1.10;1.00;;;21.90;62.40;;;;;;5416754;26;21871;-31
2024/04/23 04:28:29;;;;;;;1.00;0.80;;;22.00;62.50;;;;;;5445642;26;21400;-33
2024/04/23 04:30:58;;;;;;;1.33;0.82;;;21.50;62.00;;;;;;5437517;26;20752;-32
2024/04/23 04:33:24;;;;;;;1.30;0.90;;;21.90;62.60;;;;;;5420757;26;20342;-31
2024/04/23 04:35:52;;;;;;;1.00;0.77;;;21.50;63.00;;;;;;5435097;26;20580;-32
2024/04/23 04:38:20;;;;;;;0.90;0.80;;;21.90;62.60;;;;;;5414670;26;20351;-31
2024/04/23 04:40:52;;;;;;;1.10;0.88;;;22.30;63.40;;;;;;5417507;26;20968;-34
2024/04/23 04:43:17;;;;;;;1.20;0.90;;;21.40;62.40;;;;;;5422219;26;20239;-31
2024/04/23 04:45:48;;;;;;;1.20;0.80;;;21.60;62.80;;;;;;5437031;26;20265;-36
2024/04/23 04:48:17;;;;;;;1.35;1.25;;;21.90;63.20;;;;;;5462386;26;20231;-38
2024/04/23 04:50:46;;;;;;;1.00;0.80;;;21.90;63.70;;;;;;5427627;26;20298;-33
2024/04/23 04:53:14;;;;;;;1.10;0.80;;;21.60;63.40;;;;;;5418667;26;20245;-34
2024/04/23 04:55:45;;;;;;;4.00;1.65;;;21.90;64.00;;;;;;5421154;26;20481;-34
2024/04/23 04:58:15;;;;;;;1.65;0.90;;;21.80;64.50;;;;;;5422750;26;20361;-32
2024/04/23 05:00:48;;;;;;;1.17;0.90;;;22.00;64.70;;;;;;5436787;26;20230;-37
2024/04/23 05:03:13;;;;;;;1.23;0.90;;;22.00;64.80;;;;;;5422464;26;20953;-35
2024/04/23 05:05:45;;;;;;;1.00;0.80;;;21.50;64.40;;;;;;5419355;26;20280;-33
2024/04/23 05:08:11;;;;;;;1.10;0.88;;;21.60;64.60;;;;;;5415247;26;20281;-36
2024/04/23 05:10:39;;;;;;;1.07;0.90;;;21.90;65.40;;;;;;5414330;26;20638;-37
2024/04/23 05:13:08;;;;;;;1.65;1.20;;;21.90;65.20;;;;;;5377360;26;20242;-33
2024/04/23 05:15:37;;;;;;;1.02;0.90;;;21.60;65.90;;;;;;5316239;26;20244;-33
2024/04/23 05:18:05;;;;;;;1.00;0.80;;;23.20;67.10;;;;;;5306848;26;20848;-33
2024/04/23 05:20:36;;;;;;;1.00;0.80;;;22.00;66.30;;;;;;5302725;26;20772;-32
2024/04/23 05:23:11;;;;;;;1.10;0.90;;;21.70;65.40;;;;;;5319520;26;20735;-32
2024/04/23 05:25:40;;;;;;;1.00;0.70;;;22.70;67.00;;;;;;5321109;26;20260;-31
2024/04/23 05:28:11;;;;;;;1.05;0.70;;;22.70;67.30;;;;;;5315297;26;20230;-32
2024/04/23 05:33:25;;;;;;;1.05;0.90;;;22.00;65.90;;;;;;5318196;26;20270;-32
2024/04/23 05:35:58;;;;;;;1.02;0.80;;;22.00;66.00;;;;;;5315688;26;20264;-33
2024/04/23 05:38:27;;;;;;;1.42;0.80;;;22.60;67.00;;;;;;5326735;26;20920;-33
2024/04/23 05:40:55;;;;;;;1.10;0.90;;;22.00;66.30;;;;;;5313133;26;20851;-32
2024/04/23 05:43:27;;;;;;;1.13;1.00;;;21.90;66.40;;;;;;5311218;26;20246;-32
2024/04/23 05:45:55;;;;;;;1.10;0.80;;;22.00;66.40;;;;;;5317595;26;22169;-33
2024/04/23 05:49:01;;;;;;;1.10;1.00;;;22.00;67.10;;;;;;5325802;26;20484;-32
2024/04/23 05:52:07;;;;;;;1.30;0.80;;;21.60;65.70;;;;;;5319058;26;20285;-33
2024/04/23 05:55:14;;;;;;;1.10;0.70;;;22.00;66.20;;;;;;5310861;26;20881;-32
2024/04/23 05:57:40;;;;;;;1.15;0.90;;;22.00;66.40;;;;;;5312494;26;20235;-33
2024/04/23 06:00:12;;;;;;;1.10;0.80;;;21.70;66.60;;;;;;5301845;26;20513;-35
2024/04/23 06:02:42;;;;;;;1.00;0.80;;;22.10;67.50;;;;;;5316415;26;20908;-34
2024/04/23 06:05:07;;;;;;;1.40;1.05;;;22.20;66.50;;;;;;5307848;26;20281;-35
2024/04/23 06:07:36;;;;;;;1.00;0.70;;;22.30;66.30;;;;;;5308923;26;21347;-35
2024/04/23 06:10:02;;;;;;;0.90;0.70;;;22.50;66.90;;;;;;5317561;26;20936;-35
2024/04/23 06:12:32;;;;;;;1.00;0.80;;;22.60;66.10;;;;;;5303168;26;21176;-34
2024/04/23 06:14:57;;;;;;;0.97;0.70;;;23.00;66.10;;;;;;5302219;26;20674;-35
2024/04/23 06:17:34;;;;;;;1.10;0.80;;;22.30;64.70;;;;;;5315395;26;20706;-34
2024/04/23 06:20:00;;;;;;;2.13;0.77;;;22.90;65.20;;;;;;5308100;26;20831;-35
2024/04/23 06:22:30;;;;;;;1.10;0.93;;;22.90;64.80;;;;;;5306232;26;21318;-34
2024/04/23 06:24:57;;;;;;;1.00;0.70;;;23.00;64.70;;;;;;5319880;26;23193;-36
2024/04/23 06:27:27;;;;;;;1.10;0.90;;;23.10;64.50;;;;;;5306101;26;21261;-34
2024/04/23 06:29:54;;;;;;;1.20;0.90;;;23.20;64.20;;;;;;5320514;26;20579;-38
2024/04/23 06:32:24;;;;;;;1.20;0.90;;;23.20;64.10;;;;;;5307287;26;21112;-34
2024/04/23 06:34:52;;;;;;;1.00;0.80;;;23.30;64.10;;;;;;5315332;26;22471;-34
2024/04/23 06:37:21;;;;;;;1.70;1.00;;;23.30;63.90;;;;;;5316856;26;20481;-35
2024/04/23 06:39:46;;;;;;;1.10;0.90;;;23.40;63.70;;;;;;5315851;26;21448;-36
2024/04/23 06:42:16;;;;;;;2.40;1.10;;;23.40;63.10;;;;;;5293967;26;21959;-34
2024/04/23 06:44:42;;;;;;;1.33;0.90;;;23.50;61.60;;;;;;5315976;26;21055;-34
2024/04/23 06:47:13;;;;;;;3.47;0.90;;;23.50;59.90;;;;;;5310499;26;20471;-32
2024/04/23 06:49:40;;;;;;;1.10;0.83;;;23.60;60.90;;;;;;5313885;26;21148;-33
2024/04/23 06:52:14;;;;;;;2.80;0.93;;;23.70;60.90;;;;;;5312757;26;20558;-32
2024/04/23 06:54:42;;;;;;;1.40;1.00;;;23.80;61.00;;;;;;5310470;26;21647;-34
2024/04/23 06:57:10;;;;;;;1.10;0.80;;;23.80;60.80;;;;;;5306525;26;20477;-33
2024/04/23 06:59:42;;;;;;;1.30;1.10;;;24.20;61.10;;;;;;5309077;26;20471;-32
2024/04/23 07:02:11;;;;;;;1.20;1.00;;;24.00;60.70;;;;;;5314924;26;20511;-33
2024/04/23 07:04:41;;;;;;;1.50;1.10;;;24.10;60.60;;;;;;5317637;26;22881;-34
2024/04/23 07:07:10;;;;;;;2.10;1.13;;;24.20;60.50;;;;;;5316258;26;23029;-32
2024/04/23 07:09:38;;;;;;;1.10;1.00;;;24.20;60.20;;;;;;5312530;26;20989;-33
2024/04/23 07:12:05;;;;;;;1.30;1.00;;;24.30;60.10;;;;;;5324409;26;20471;-32
2024/04/23 07:14:34;;;;;;;1.00;0.90;;;24.40;59.90;;;;;;5320920;26;20546;-34
2024/04/23 07:17:02;;;;;;;1.40;1.00;;;24.50;59.80;;;;;;5310287;26;21340;-34
2024/04/23 07:19:28;;;;;;;2.17;1.00;;;24.50;59.60;;;;;;5323006;26;20629;-35
2024/04/23 07:22:00;;;;;;;1.50;1.17;;;24.60;59.50;;;;;;5316747;26;21716;-34
2024/04/23 07:24:33;;;;;;;1.00;0.80;;;24.70;59.40;;;;;;5317965;26;21499;-34
2024/04/23 07:27:01;;;;;;;1.03;0.83;;;24.80;59.30;;;;;;5323797;26;20646;-33
2024/04/23 07:29:29;;;;;;;1.13;1.00;;;24.80;59.20;;;;;;5320807;26;22094;-34
2024/04/23 07:31:58;;;;;;;1.00;0.80;;;24.90;59.00;;;;;;5316311;26;20652;-32
2024/04/23 07:34:26;;;;;;;1.00;0.80;;;25.30;59.10;;;;;;5323057;26;21202;-34
2024/04/23 07:36:52;;;;;;;1.20;0.80;;;25.00;58.70;;;;;;5318369;26;22353;-35
2024/04/23 07:39:20;;;;;;;1.63;0.87;;;25.10;58.70;;;;;;5309366;26;20505;-33
2024/04/23 07:41:49;;;;;;;2.03;1.37;;;25.10;58.50;;;;;;5304649;26;20691;-34
2024/04/23 07:44:17;;;;;;;0.90;0.70;;;25.20;58.00;;;;;;5311972;26;20930;-33
2024/04/23 07:46:44;;;;;;;1.40;0.97;;;25.30;58.30;;;;;;5310774;26;20526;-34
2024/04/23 07:49:13;;;;;;;1.03;0.80;;;25.30;58.10;;;;;;5318416;26;21271;-33
2024/04/23 07:51:38;;;;;;;2.70;0.90;;;25.40;57.90;;;;;;5322559;26;20466;-32
2024/04/23 07:54:07;;;;;;;1.43;1.10;;;25.40;58.10;;;;;;5314088;26;20602;-34
2024/04/23 07:56:34;;;;;;;3.87;1.87;;;25.40;57.20;;;;;;5319349;26;20239;-32
2024/04/23 07:59:08;;;;;;;1.47;0.90;;;25.50;57.30;;;;;;5324040;26;22169;-35
2024/04/23 08:01:34;;;;;;;1.97;1.10;;;25.50;57.20;;;;;;5320512;26;20523;-34
2024/04/23 08:04:05;;;;;;;2.70;1.30;;;25.60;56.40;;;;;;5321844;26;21312;-33
2024/04/23 08:06:33;;;;;;;2.70;1.07;;;25.60;55.80;;;;;;5318871;26;22311;-31
2024/04/23 08:09:05;;;;;;;1.83;0.90;;;25.70;55.80;;;;;;5311674;26;21151;-35
2024/04/23 08:11:33;;;;;;;2.23;1.00;;;25.70;55.70;;;;;;5312729;26;20968;-31
2024/04/23 08:14:02;;;;;;;1.27;0.90;;;25.70;56.00;;;;;;5313628;26;20708;-32
2024/04/23 08:16:30;;;;;;;1.10;1.00;;;25.80;56.10;;;;;;5326175;26;20477;-35
2024/04/23 08:19:00;;;;;;;3.97;0.90;;;25.80;56.10;;;;;;5310689;26;21873;-36
2024/04/23 08:21:25;;;;;;;1.03;0.93;;;25.90;56.40;;;;;;5287927;26;20560;-34
2024/04/23 08:23:54;;;;;;;1.33;1.10;;;26.10;56.50;;;;;;5301959;26;20464;-34
2024/04/23 08:26:20;;;;;;;1.30;0.90;;;25.90;56.50;;;;;;5294477;26;21350;-30
2024/04/23 08:28:52;;;;;;;1.20;0.90;;;26.00;56.60;;;;;;5307275;26;20632;-34
2024/04/23 08:31:24;;;;;;;1.30;0.97;;;26.00;56.40;;;;;;5302107;26;21696;-35
2024/04/23 08:33:56;;;;;;;1.20;0.90;;;26.00;56.60;;;;;;5320102;26;20482;-32
2024/04/23 08:36:25;;;;;;;1.30;0.90;;;26.20;56.70;;;;;;5303731;26;23279;-32
2024/04/23 08:38:54;;;;;;;1.23;1.10;;;26.10;56.70;;;;;;5324833;26;21011;-35
2024/04/23 08:41:23;;;;;;;1.30;1.10;;;26.20;56.70;;;;;;5315732;26;20465;-35
2024/04/23 08:44:03;;;;;;;1.00;0.90;;;26.20;56.50;;;;;;5316859;26;20623;-34
2024/04/23 08:46:29;;;;;;;1.10;0.83;;;26.30;56.80;;;;;;5324092;26;21741;-34
2024/04/23 08:49:01;;;;;;;1.30;0.80;;;26.40;56.80;;;;;;5311037;26;20831;-34
2024/04/23 08:51:30;;;;;;;1.50;1.17;;;26.40;56.70;;;;;;5302455;26;21384;-36
2024/04/23 08:54:01;;;;;;;1.20;0.80;;;26.50;56.70;;;;;;5315225;26;20463;-35
2024/04/23 08:56:29;;;;;;;1.30;1.10;;;26.50;56.60;;;;;;5310869;26;21304;-36
2024/04/23 08:58:58;;;;;;;1.00;0.80;;;26.60;56.60;;;;;;5303711;26;20562;-34
2024/04/23 09:01:27;;;;;;;1.37;1.00;;;26.60;56.60;;;;;;5307862;26;21269;-34
2024/04/23 09:04:00;;;;;;;2.60;1.20;;;26.70;56.50;;;;;;5315680;26;23960;-35
2024/04/23 09:06:30;;;;;;;1.40;1.30;;;26.70;56.50;;;;;;5309781;26;20468;-34
2024/04/23 09:09:03;;;;;;;1.53;1.20;;;26.70;55.50;;;;;;5309983;26;21367;-36
2024/04/23 09:11:31;;;;;;;1.30;1.00;;;26.80;55.40;;;;;;5306379;26;21225;-36
2024/04/23 09:14:03;;;;;;;1.20;1.00;;;26.80;55.50;;;;;;5324992;26;21156;-35
2024/04/23 09:16:30;;;;;;;1.30;1.13;;;26.90;55.50;;;;;;5312157;26;20801;-36
2024/04/23 09:19:03;;;;;;;1.77;1.00;;;27.00;55.60;;;;;;5321437;26;21405;-35
2024/04/23 09:21:33;;;;;;;1.20;1.00;;;27.00;55.50;;;;;;5321652;26;23237;-35
2024/04/23 09:24:02;;;;;;;6.10;1.17;;;27.00;55.20;;;;;;5305928;26;22691;-34
2024/04/23 09:26:31;;;;;;;1.43;1.10;;;27.00;55.10;;;;;;5294917;26;20522;-32
2024/04/23 09:29:02;;;;;;;1.73;1.13;;;27.10;55.10;;;;;;5322779;26;21169;-37
2024/04/23 09:31:37;;;;;;;3.10;1.20;;;27.00;55.10;;;;;;5314881;26;20480;-35
2024/04/23 09:34:11;;;;;;;1.77;0.80;;;27.10;55.10;;;;;;5307204;26;21276;-36
2024/04/23 09:36:38;;;;;;;1.30;0.90;;;27.30;90.80;;;;;;5300645;26;20526;-34
2024/04/23 09:39:17;;;;;;;1.57;0.90;;;27.10;55.00;;;;;;5295063;26;20769;-35
2024/04/23 09:41:54;;;;;;;2.57;1.10;;;27.30;55.00;;;;;;5314006;26;20524;-32
2024/04/23 09:44:22;;;;;;;1.10;0.80;;;27.20;54.80;;;;;;5312137;26;21627;-34
2024/04/23 09:46:49;;;;;;;2.67;1.20;;;27.20;54.90;;;;;;5304905;26;20511;-35
2024/04/23 09:49:22;;;;;;;1.10;0.90;;;27.30;54.80;;;;;;5325328;26;21223;-35
2024/04/23 09:51:47;;;;;;;8.17;1.40;;;27.40;54.90;;;;;;5304127;26;20467;-35
2024/04/23 09:54:16;;;;;;;1.40;0.90;;;27.40;54.80;;;;;;5311640;26;20473;-35
2024/04/23 09:56:42;;;;;;;1.43;1.10;;;27.50;54.80;;;;;;5308029;26;21235;-34
2024/04/23 09:59:17;;;;;;;1.20;1.00;;;27.60;54.90;;;;;;5326057;26;20567;-35
2024/04/23 10:01:48;;;;;;;1.33;1.00;;;27.60;54.50;;;;;;5316130;26;20238;-34
2024/04/23 10:04:16;;;;;;;1.00;0.80;;;27.60;54.50;;;;;;5320008;26;21345;-36
2024/04/23 10:06:52;;;;;;;1.47;1.10;;;27.60;54.60;;;;;;5329603;26;21485;-35
2024/04/23 10:09:25;;;;;;;2.70;1.30;;;27.50;54.60;;;;;;5316565;26;20965;-35
2024/04/23 10:11:54;;;;;;;1.17;0.80;;;27.40;54.70;;;;;;5310565;26;20525;-34
2024/04/23 10:14:26;;;;;;;1.30;1.00;;;27.40;54.80;;;;;;5313003;26;21031;-33
2024/04/23 10:17:01;;;;;;;1.57;0.90;;;27.40;54.90;;;;;;5317014;26;22076;-37
2024/04/23 10:19:31;;;;;;;1.30;1.20;;;27.30;54.80;;;;;;5306333;26;20480;-35
2024/04/23 10:22:03;;;;;;;2.50;1.07;;;27.30;54.90;;;;;;5295281;26;21252;-36
2024/04/23 10:24:32;;;;;;;1.43;1.00;;;27.20;54.90;;;;;;5313908;26;21268;-35
2024/04/23 10:26:58;;;;;;;2.87;1.10;;;27.30;55.00;;;;;;5292531;26;21881;-35
2024/04/23 10:29:31;;;;;;;1.40;1.07;;;27.30;55.10;;;;;;5319415;26;22209;-35
2024/04/23 10:32:00;;;;;;;1.50;0.90;;;27.30;55.10;;;;;;5321766;26;20525;-34
2024/04/23 10:34:33;;;;;;;1.27;0.93;;;27.20;55.00;;;;;;5302498;26;20464;-35
2024/04/23 10:37:09;;;;;;;1.10;0.90;;;27.20;55.10;;;;;;5308040;26;20480;-35
2024/04/23 10:39:44;;;;;;;1.53;0.90;;;27.30;55.10;;;;;;5304481;26;20612;-34
2024/04/23 10:42:11;;;;;;;1.30;1.03;;;27.40;55.00;;;;;;5320105;26;22757;-35
2024/04/23 10:44:43;;;;;;;1.10;1.00;;;27.40;55.00;;;;;;5313635;26;21742;-36
2024/04/23 10:47:09;;;;;;;1.13;0.73;;;27.40;55.00;;;;;;5309432;26;20571;-35
2024/04/23 10:49:43;;;;;;;1.97;1.17;;;27.40;54.90;;;;;;5311736;26;20595;-34
2024/04/23 10:52:11;;;;;;;1.53;0.90;;;27.40;55.00;;;;;;5309449;26;20520;-35
2024/04/23 10:54:48;;;;;;;1.70;0.83;;;27.70;55.10;;;;;;5306805;26;20978;-36
2024/04/23 10:57:17;;;;;;;1.70;1.10;;;27.40;54.60;;;;;;5308509;26;23044;-35
2024/04/23 10:59:45;;;;;;;1.30;0.90;;;27.40;54.90;;;;;;5313773;26;21119;-35
2024/04/23 11:02:12;;;;;;;2.00;1.23;;;27.30;55.00;;;;;;5307027;26;20578;-36
2024/04/23 11:04:43;;;;;;;1.50;0.80;;;27.40;55.00;;;;;;5311650;26;22186;-36
2024/04/23 11:07:22;;;;;;;1.10;0.90;;;27.40;55.00;;;;;;5317163;26;20488;-36
2024/04/23 11:09:50;;;;;;;1.10;0.80;;;27.40;55.00;;;;;;5325292;26;20530;-35
2024/04/23 11:12:18;;;;;;;1.40;1.13;;;27.40;55.00;;;;;;5307392;26;21908;-35
2024/04/23 11:14:46;;;;;;;1.57;0.93;;;27.40;55.00;;;;;;5323549;26;20467;-35
2024/04/23 11:17:12;;;;;;;1.00;0.80;;;27.40;54.90;;;;;;5308945;26;20467;-36
2024/04/23 11:19:51;;;;;;;1.50;1.07;;;27.40;54.80;;;;;;5321667;26;21064;-35
2024/04/23 11:22:32;;;;;;;1.60;1.03;;;27.40;54.80;;;;;;5317283;26;21645;-35
2024/04/23 11:25:06;;;;;;;1.20;0.90;;;27.40;54.90;;;;;;5299950;26;20465;-35
2024/04/23 11:27:37;;;;;;;1.10;0.83;;;27.40;54.80;;;;;;5314867;26;22195;-36
2024/04/23 11:30:16;;;;;;;1.60;1.10;;;27.40;54.80;;;;;;5313834;26;20519;-36
2024/04/23 11:32:42;;;;;;;1.20;0.90;;;27.40;54.80;;;;;;5315660;26;20703;-35
2024/04/23 11:35:14;;;;;;;1.60;1.20;;;27.40;54.80;;;;;;5308848;26;21055;-35
2024/04/23 11:37:45;;;;;;;1.70;1.00;;;27.30;54.70;;;;;;5304498;26;21601;-34
2024/04/23 11:40:14;;;;;;;1.20;1.10;;;27.40;54.70;;;;;;5308890;26;21394;-33
2024/04/23 11:42:45;;;;;;;1.43;1.07;;;27.40;54.60;;;;;;5315445;26;20535;-35
2024/04/23 11:45:17;;;;;;;1.00;0.80;;;27.20;54.80;;;;;;5309405;26;20479;-35
2024/04/23 11:47:45;;;;;;;1.37;0.80;;;28.50;79.70;;;;;;5311778;26;20721;-34
2024/04/23 11:50:24;;;;;;;1.20;0.80;;;27.40;54.40;;;;;;5315071;26;22040;-34
2024/04/23 11:52:52;;;;;;;1.10;0.80;;;27.40;54.30;;;;;;5307926;26;21567;-35
2024/04/23 11:55:25;;;;;;;1.77;1.30;;;27.40;54.40;;;;;;5310841;26;20633;-35
2024/04/23 11:58:02;;;;;;;3.70;2.10;;;27.50;54.40;;;;;;5319707;26;20467;-34
2024/04/23 12:00:34;;;;;;;3.00;2.80;;;27.20;40.60;;;;;;5314763;26;20455;-34
2024/04/23 12:03:05;;;;;;;3.40;2.40;;;;;;;;;;5319454;26;20523;-34
2024/04/23 12:05:41;;;;;;;2.93;2.70;;;25.60;36.30;;;;;;5314976;26;20751;-35
2024/04/23 12:08:14;;;;;;;5.33;2.70;;;24.50;36.70;;;;;;5311279;26;20513;-33
2024/04/23 12:10:54;;;;;;;3.80;3.27;;;25.10;36.20;;;;;;5322619;26;20537;-34
2024/04/23 12:13:30;;;;;;;3.10;2.80;;;24.90;35.70;;;;;;5304517;26;21100;-34
2024/04/23 12:16:08;;;;;;;4.40;3.73;;;24.70;34.60;;;;;;5309667;26;21373;-34
2024/04/23 12:18:42;;;;;;;3.50;2.93;;;24.30;35.90;;;;;;5303302;26;20474;-35
2024/04/23 12:21:13;;;;;;;3.33;3.03;;;23.30;31.40;;;;;;5301933;26;20473;-35
2024/04/23 12:23:49;;;;;;;2.70;2.50;;;23.10;30.90;;;;;;5316825;26;23513;-35
2024/04/23 12:26:21;;;;;;;3.27;2.70;;;23.40;34.20;;;;;;5315531;26;21262;-35
2024/04/23 12:28:59;;;;;;;2.80;2.60;;;23.10;35.70;;;;;;5316147;26;21094;-36
2024/04/23 12:31:49;;;;;;;1.70;1.60;;;23.50;45.60;;;;;;5308437;26;21639;-35
2024/04/23 12:34:21;;;;;;;3.10;2.13;;;23.80;36.80;;;;;;5314015;26;20591;-35
2024/04/23 12:36:52;;;;;;;2.57;1.97;;;;;;;;;;5310747;26;20582;-35
2024/04/23 12:39:25;;;;;;;2.37;2.00;;;24.70;59.10;;;;;;5310602;26;21369;-35
2024/04/23 12:42:14;;;;;;;1.63;1.50;;;25.50;58.80;;;;;;5314610;26;20459;-35
2024/04/23 12:44:44;;;;;;;2.67;1.60;;;26.00;58.60;;;;;;5314397;26;21041;-34
2024/04/23 12:47:16;;;;;;;1.60;1.13;;;25.60;52.20;;;;;;5321931;26;21133;-34
2024/04/23 12:49:47;;;;;;;1.40;1.10;;;25.80;46.60;;;;;;5327638;26;21139;-35
2024/04/23 12:52:19;;;;;;;1.60;1.50;;;26.90;48.50;;;;;;5312305;26;20466;-34
2024/04/23 12:54:49;;;;;;;1.80;1.40;;;25.90;48.60;;;;;;5315809;26;23204;-34
2024/04/23 12:57:18;;;;;;;2.03;1.43;;;26.80;51.30;;;;;;5305231;26;21313;-35
2024/04/23 12:59:44;;;;;;;2.20;1.33;;;26.40;46.90;;;;;;5302602;26;21040;-34
2024/04/23 13:02:16;;;;;;;2.23;1.30;;;25.90;44.90;;;;;;5313796;26;21689;-34
2024/04/23 13:04:42;;;;;;;1.40;1.30;;;25.50;44.70;;;;;;5300540;26;22853;-34
2024/04/23 13:07:10;;;;;;;1.43;1.00;;;26.00;45.40;;;;;;5300424;26;20538;-33
2024/04/23 13:09:39;;;;;;;2.13;1.50;;;26.00;45.70;;;;;;5323330;26;21572;-36
2024/04/23 13:12:12;;;;;;;1.30;1.20;;;26.00;45.90;;;;;;5304074;26;23233;-36
2024/04/23 13:14:41;;;;;;;2.73;1.10;;;26.00;46.30;;;;;;5304405;26;21132;-35